Sao Jose do Egito, Brazil
Current Conditions -  °F | °C
As of 9:00 PM on Tuesday 21 Oct 2014 (Local Time) from SBKG Reporting Station
Scattered Clouds Scattered Clouds  
Wind Chill: 72°   Ceiling: Unl
Heat Index: 72°   Visibility: 6mi
Dew Point: 66°   Wind: 9mph
Humidity: 83%   Direction: 100°E
Pressure: 30.03"   Gusts: NA
Location:  7.48°S, 37.27°W
Report Text: SBKG 220000Z 10008KT 9999 SCT018 22/19 Q1017
Loading
Personal Weather Stations






























Interactive Weather Map
Tropical Storm Tracking
New forecast layout! Learn more

10-Day Weather Forecast

Advertisements
Track Severe Weather on mobile